Time;durP1;ratioP1;P1;durP2;ratioP2;P2;SDS_P1;SDS_P2;PMS_P1;PMS_P2;Temp;Humidity;BMP_temperature;BMP_pressure;BME280_temperature;BME280_humidity;BME280_pressure;Samples;Min_cycle;Max_cycle;Signal;HPM_P1;HPM_P2
2023/02/19 09:19:07;;;;;;;3.03;0.67;;;11.40;99.90;;;;;;4931858;29;20223;-73
2023/02/19 09:21:34;;;;;;;2.43;0.77;;;11.40;99.90;;;;;;4932784;29;20213;-73
2023/02/19 09:24:01;;;;;;;4.63;0.97;;;11.30;99.90;;;;;;4939344;29;20742;-73
2023/02/19 09:26:28;;;;;;;4.80;1.20;;;11.30;99.90;;;;;;4939159;29;20717;-75
2023/02/19 09:28:54;;;;;;;1.40;0.93;;;11.30;99.90;;;;;;4939331;29;20575;-73
2023/02/19 09:31:21;;;;;;;5.10;0.90;;;11.20;99.90;;;;;;4939355;29;20299;-73
2023/02/19 09:33:48;;;;;;;3.17;0.80;;;11.20;99.90;;;;;;4939013;29;20228;-72
2023/02/19 09:36:18;;;;;;;2.33;1.00;;;11.20;99.90;;;;;;4938968;29;20216;-71
2023/02/19 09:38:45;;;;;;;7.07;1.03;;;11.40;99.90;;;;;;4938499;29;20213;-74
2023/02/19 09:41:20;;;;;;;7.07;2.10;;;11.40;99.90;;;;;;4938789;29;20209;-71
2023/02/19 09:43:47;;;;;;;4.27;0.80;;;11.40;99.90;;;;;;4938824;29;20220;-75
2023/02/19 09:46:24;;;;;;;5.20;1.03;;;11.40;99.90;;;;;;4939180;29;20212;-72
2023/02/19 09:48:53;;;;;;;6.10;0.93;;;11.50;99.90;;;;;;4939097;29;20299;-73
2023/02/19 09:51:22;;;;;;;5.57;1.07;;;11.70;99.90;;;;;;4938755;29;20205;-71
2023/02/19 09:53:52;;;;;;;3.17;0.80;;;11.70;99.90;;;;;;4938614;29;20336;-71
2023/02/19 09:56:18;;;;;;;2.97;1.10;;;11.80;99.90;;;;;;4938681;29;20209;-69
2023/02/19 09:58:49;;;;;;;4.17;0.90;;;11.80;99.90;;;;;;4938816;29;20215;-72
2023/02/19 10:01:17;;;;;;;3.37;0.97;;;11.90;99.90;;;;;;4938621;29;20711;-72
2023/02/19 10:03:46;;;;;;;2.43;0.90;;;11.80;99.90;;;;;;4938753;29;20237;-73
2023/02/19 10:06:19;;;;;;;3.93;1.10;;;12.00;99.90;;;;;;4938379;29;20208;-72
2023/02/19 10:08:49;;;;;;;3.90;1.20;;;12.20;99.90;;;;;;4938612;29;20304;-72
2023/02/19 10:11:16;;;;;;;5.20;0.77;;;12.30;99.90;;;;;;4938855;29;20662;-74
2023/02/19 10:13:47;;;;;;;4.87;1.03;;;12.50;99.90;;;;;;4938566;29;20209;-73
2023/02/19 10:16:17;;;;;;;6.00;1.20;;;12.60;99.90;;;;;;4938511;29;20213;-72
2023/02/19 10:18:45;;;;;;;1.97;0.80;;;12.80;99.90;;;;;;4938217;29;20698;-72
2023/02/19 10:21:18;;;;;;;4.57;1.43;;;13.00;99.90;;;;;;4937845;29;20251;-72
2023/02/19 10:23:47;;;;;;;1.97;0.90;;;12.90;99.90;;;;;;4938351;29;20233;-73
2023/02/19 10:26:14;;;;;;;1.70;0.90;;;13.10;99.90;;;;;;4938068;29;20304;-73
2023/02/19 10:28:41;;;;;;;6.20;1.17;;;13.10;99.90;;;;;;4938326;29;20250;-73
2023/02/19 10:31:16;;;;;;;3.20;1.20;;;12.90;99.90;;;;;;4938224;29;20217;-72
2023/02/19 10:33:49;;;;;;;3.43;0.70;;;12.50;99.90;;;;;;4937790;29;20557;-72
2023/02/19 10:36:27;;;;;;;5.40;1.10;;;12.50;99.90;;;;;;4938184;29;20660;-73
2023/02/19 10:38:57;;;;;;;3.73;0.70;;;12.50;99.90;;;;;;4919218;29;20205;-75
2023/02/19 10:41:25;;;;;;;3.57;0.70;;;12.70;99.90;;;;;;4919223;29;20212;-74
2023/02/19 10:43:55;;;;;;;3.70;0.97;;;12.80;99.90;;;;;;4918994;29;20722;-73
2023/02/19 10:46:25;;;;;;;4.93;0.80;;;13.00;99.90;;;;;;4928528;29;20726;-71
2023/02/19 10:48:55;;;;;;;5.73;0.70;;;13.10;99.90;;;;;;4936363;29;20774;-72
2023/02/19 10:51:31;;;;;;;3.20;0.70;;;13.10;99.90;;;;;;4936496;29;20208;-77
2023/02/19 10:54:06;;;;;;;4.10;1.00;;;12.90;99.90;;;;;;4936236;29;20228;-72
2023/02/19 10:56:33;;;;;;;5.07;0.97;;;12.90;99.90;;;;;;4936567;29;20216;-71
2023/02/19 10:59:19;;;;;;;2.50;1.00;;;13.00;99.90;;;;;;4936180;29;20250;-73
2023/02/19 11:01:57;;;;;;;2.67;0.80;;;12.80;99.90;;;;;;4936260;29;20217;-71
2023/02/19 11:04:25;;;;;;;3.23;0.90;;;12.80;99.90;;;;;;4936372;29;20232;-71
2023/02/19 11:06:52;;;;;;;9.07;1.23;;;13.00;99.90;;;;;;4936154;29;20232;-69
2023/02/19 11:09:27;;;;;;;4.23;1.20;;;13.10;99.90;;;;;;4935787;29;20205;-72
2023/02/19 11:11:56;;;;;;;3.23;1.73;;;13.00;99.90;;;;;;4936091;29;20209;-81
2023/02/19 11:14:25;;;;;;;2.67;0.80;;;12.70;99.90;;;;;;4937139;29;20229;-77
2023/02/19 11:16:55;;;;;;;1.53;0.97;;;12.70;99.90;;;;;;4939277;29;20208;-70
2023/02/19 11:19:35;;;;;;;4.17;1.20;;;12.70;99.90;;;;;;4937637;29;20213;-72
2023/02/19 11:22:02;;;;;;;3.87;1.13;;;12.60;99.90;;;;;;4938216;29;20205;-71
2023/02/19 11:24:34;;;;;;;2.40;0.73;;;12.70;99.90;;;;;;4936806;29;20225;-71
2023/02/19 11:27:03;;;;;;;3.93;0.93;;;12.70;99.90;;;;;;4936788;29;20328;-71
2023/02/19 11:29:33;;;;;;;5.60;0.93;;;12.80;99.90;;;;;;4935336;29;20231;-72
2023/02/19 11:32:23;;;;;;;1.87;0.77;;;12.80;99.90;;;;;;4937263;29;20228;-73
2023/02/19 11:34:49;;;;;;;5.57;1.20;;;12.50;99.90;;;;;;4937653;29;20228;-75
2023/02/19 11:37:18;;;;;;;3.73;1.00;;;12.40;99.90;;;;;;4937459;29;20209;-76
2023/02/19 11:39:48;;;;;;;4.20;1.30;;;12.40;99.90;;;;;;4937759;29;20300;-70
2023/02/19 11:42:37;;;;;;;3.30;1.10;;;12.30;99.90;;;;;;4944543;29;20208;-72
2023/02/19 11:45:30;;;;;;;3.63;1.00;;;12.30;99.90;;;;;;4937370;29;20233;-69
2023/02/19 11:48:26;;;;;;;7.30;1.40;;;12.40;99.90;;;;;;4934343;29;20699;-70
2023/02/19 11:51:05;;;;;;;1.97;0.80;;;12.40;99.90;;;;;;4936665;29;20213;-68
2023/02/19 11:53:36;;;;;;;2.80;0.80;;;12.30;99.90;;;;;;4937069;29;20303;-68
2023/02/19 11:56:18;;;;;;;3.30;0.80;;;12.30;99.90;;;;;;4937057;29;20240;-68
2023/02/19 11:59:03;;;;;;;5.30;0.90;;;12.30;99.90;;;;;;4936675;29;20220;-69
2023/02/19 12:02:00;;;;;;;4.53;1.03;;;12.30;99.90;;;;;;4936506;29;20224;-69
2023/02/19 12:04:56;;;;;;;1.40;0.90;;;12.10;99.90;;;;;;4936566;29;20228;-68
2023/02/19 12:07:50;;;;;;;1.73;0.90;;;12.10;99.90;;;;;;4936832;29;20719;-68
2023/02/19 12:10:21;;;;;;;3.40;1.10;;;12.00;99.90;;;;;;4936694;29;20216;-68
2023/02/19 12:13:02;;;;;;;2.63;0.93;;;12.00;99.90;;;;;;4936856;29;20213;-69
2023/02/19 12:15:53;;;;;;;4.33;0.97;;;12.00;99.90;;;;;;4936505;29;20229;-69
2023/02/19 12:18:54;;;;;;;2.87;1.10;;;12.00;99.90;;;;;;4936697;29;20280;-68
2023/02/19 12:21:32;;;;;;;4.70;1.10;;;12.00;99.90;;;;;;4924981;29;20209;-68
2023/02/19 12:24:19;;;;;;;2.83;1.10;;;12.20;99.90;;;;;;4936102;29;20319;-71
2023/02/19 12:27:00;;;;;;;4.37;1.30;;;12.30;99.90;;;;;;4936310;29;20208;-69
2023/02/19 12:29:44;;;;;;;1.07;0.90;;;12.50;99.90;;;;;;4935983;29;20220;-69
2023/02/19 12:32:35;;;;;;;7.50;1.17;;;12.70;99.90;;;;;;4936399;29;20564;-68
2023/02/19 12:35:53;;;;;;;0.90;0.73;;;12.70;99.90;;;;;;4936093;29;20250;-67
2023/02/19 12:38:23;;;;;;;3.80;0.97;;;12.60;99.90;;;;;;4935948;29;20235;-69
2023/02/19 12:41:09;;;;;;;2.37;1.30;;;12.40;99.90;;;;;;4935685;29;20259;-69
2023/02/19 12:43:40;;;;;;;3.57;0.90;;;12.30;99.90;;;;;;4935903;29;20260;-74
2023/02/19 12:46:14;;;;;;;1.60;0.77;;;12.30;99.90;;;;;;4931790;29;20205;-76
2023/02/19 12:48:46;;;;;;;3.57;0.90;;;12.30;99.90;;;;;;4935370;29;20745;-75
2023/02/19 12:51:19;;;;;;;3.83;0.93;;;12.20;99.90;;;;;;4935541;29;20204;-77
2023/02/19 12:53:50;;;;;;;1.50;0.90;;;12.10;99.90;;;;;;4935580;29;20726;-74
2023/02/19 12:56:22;;;;;;;1.87;1.00;;;11.90;99.90;;;;;;4935797;29;20219;-73
2023/02/19 12:58:53;;;;;;;1.97;1.00;;;11.80;99.90;;;;;;4935968;29;20236;-76
2023/02/19 13:01:26;;;;;;;2.10;0.90;;;11.80;99.90;;;;;;4936016;29;20208;-71
2023/02/19 13:04:02;;;;;;;3.17;1.20;;;11.70;99.90;;;;;;4935665;29;20229;-69
2023/02/19 13:06:36;;;;;;;3.50;0.93;;;11.90;99.90;;;;;;4916504;29;20209;-75
2023/02/19 13:09:09;;;;;;;2.60;1.10;;;12.00;99.90;;;;;;4916541;29;20238;-76
2023/02/19 13:11:39;;;;;;;1.30;0.70;;;12.00;99.90;;;;;;4916598;29;20216;-69
2023/02/19 13:14:16;;;;;;;2.87;1.00;;;12.00;99.90;;;;;;4917555;29;20237;-71
2023/02/19 13:16:50;;;;;;;2.87;0.97;;;12.00;99.90;;;;;;4935827;29;20221;-71
2023/02/19 13:19:17;;;;;;;2.10;0.80;;;12.00;99.90;;;;;;4936123;29;20205;-74
2023/02/19 13:24:39;;;;;;;0.90;0.80;;;12.10;99.90;;;;;;4935998;29;20579;-74
2023/02/19 13:27:27;;;;;;;3.17;0.80;;;12.00;99.90;;;;;;4931477;29;20210;-74
2023/02/19 13:30:04;;;;;;;4.23;1.17;;;12.20;99.90;;;;;;4935686;29;20310;-76
2023/02/19 13:32:52;;;;;;;1.50;0.70;;;12.10;99.90;;;;;;4936044;29;20204;-74
2023/02/19 13:35:37;;;;;;;2.27;0.87;;;12.10;99.90;;;;;;4935748;29;20315;-75
2023/02/19 13:38:06;;;;;;;3.93;1.03;;;12.00;99.90;;;;;;4935714;29;20219;-71
2023/02/19 13:40:35;;;;;;;2.87;0.80;;;11.90;99.90;;;;;;4935396;29;20236;-74
2023/02/19 13:43:04;;;;;;;1.97;1.00;;;12.00;99.90;;;;;;4935643;29;20213;-70
2023/02/19 13:45:34;;;;;;;2.90;0.87;;;11.80;99.90;;;;;;4936349;29;20235;-75
2023/02/19 13:48:14;;;;;;;2.10;1.10;;;11.70;99.90;;;;;;4935358;29;20261;-74
2023/02/19 13:50:42;;;;;;;3.00;0.93;;;11.60;99.90;;;;;;4935843;29;20212;-76
2023/02/19 13:53:42;;;;;;;2.13;0.97;;;11.60;99.90;;;;;;4935699;29;20295;-76
2023/02/19 13:56:37;;;;;;;2.30;1.00;;;11.40;99.90;;;;;;4935504;29;20232;-76
2023/02/19 13:59:24;;;;;;;1.40;1.00;;;11.50;99.90;;;;;;4935731;29;20212;-76
2023/02/19 14:02:15;;;;;;;2.50;1.27;;;11.50;99.90;;;;;;4935323;29;20211;-75
2023/02/19 14:04:50;;;;;;;3.60;0.97;;;11.70;99.90;;;;;;4935395;29;20319;-74
2023/02/19 14:07:33;;;;;;;3.63;0.80;;;11.70;99.90;;;;;;4935255;29;20212;-75
2023/02/19 14:10:00;;;;;;;5.63;1.10;;;11.70;99.90;;;;;;4938913;29;20226;-76
2023/02/19 14:12:32;;;;;;;6.00;1.07;;;11.80;99.90;;;;;;4938786;29;20213;-76
2023/02/19 14:15:50;;;;;;;2.90;1.00;;;11.80;99.90;;;;;;4939110;29;20316;-76
2023/02/19 14:18:42;;;;;;;2.97;1.20;;;11.70;99.90;;;;;;4924579;29;20213;-76
2023/02/19 14:21:18;;;;;;;1.67;0.97;;;11.70;99.90;;;;;;4938502;29;20213;-75
2023/02/19 14:23:52;;;;;;;2.13;0.77;;;11.60;99.90;;;;;;4938324;29;20229;-75
2023/02/19 14:26:19;;;;;;;3.33;0.93;;;11.50;99.90;;;;;;4938584;29;20219;-76
2023/02/19 14:28:47;;;;;;;3.30;0.80;;;11.40;99.90;;;;;;4938493;29;20243;-75
2023/02/19 14:31:36;;;;;;;1.50;0.70;;;11.20;99.90;;;;;;4938901;29;20209;-76
2023/02/19 14:34:06;;;;;;;3.73;1.00;;;11.20;99.90;;;;;;4935411;29;20229;-76
2023/02/19 14:36:42;;;;;;;5.07;1.30;;;11.00;99.90;;;;;;4938672;29;20210;-74
2023/02/19 14:39:15;;;;;;;4.63;1.03;;;10.80;99.90;;;;;;4938441;29;20208;-74
2023/02/19 14:41:45;;;;;;;3.13;0.90;;;10.90;99.90;;;;;;4938264;29;20209;-75
2023/02/19 14:44:17;;;;;;;1.07;0.93;;;10.90;99.90;;;;;;4938383;29;20734;-73
2023/02/19 14:46:53;;;;;;;1.40;1.00;;;10.90;99.90;;;;;;4938652;29;20217;-76
2023/02/19 14:49:25;;;;;;;2.13;1.00;;;10.80;99.90;;;;;;4938298;29;20236;-74
2023/02/19 14:51:58;;;;;;;3.80;1.50;;;10.80;99.90;;;;;;4938221;29;20232;-75
2023/02/19 14:54:37;;;;;;;2.73;1.20;;;11.00;99.90;;;;;;4938072;29;20232;-76
2023/02/19 14:57:10;;;;;;;3.03;0.93;;;11.00;99.90;;;;;;4938534;29;20209;-76
2023/02/19 14:59:37;;;;;;;4.43;1.10;;;11.00;99.90;;;;;;4938291;29;20217;-74
2023/02/19 15:02:15;;;;;;;1.60;1.17;;;11.00;99.90;;;;;;4939691;29;20326;-74
2023/02/19 15:04:41;;;;;;;1.83;0.93;;;11.00;99.90;;;;;;4937980;29;20232;-75
2023/02/19 15:07:14;;;;;;;1.73;0.90;;;10.90;99.90;;;;;;4939236;29;20221;-73
2023/02/19 15:09:44;;;;;;;1.87;1.07;;;10.70;99.90;;;;;;4938015;29;20733;-72
2023/02/19 15:12:17;;;;;;;1.43;1.03;;;10.80;99.90;;;;;;4938887;29;20219;-75
2023/02/19 15:14:45;;;;;;;3.30;1.00;;;10.80;99.90;;;;;;4938998;29;20280;-74
2023/02/19 15:17:16;;;;;;;1.73;1.20;;;10.90;99.90;;;;;;4937874;29;20216;-74
2023/02/19 15:19:43;;;;;;;1.53;1.13;;;11.00;99.90;;;;;;4936892;29;20221;-75
2023/02/19 15:22:17;;;;;;;2.97;1.17;;;11.00;99.90;;;;;;4937418;29;20668;-75
2023/02/19 15:24:45;;;;;;;3.00;1.10;;;10.70;99.90;;;;;;4937810;29;20229;-75
2023/02/19 15:27:18;;;;;;;2.57;1.30;;;10.80;99.90;;;;;;4937711;29;20549;-75
2023/02/19 15:29:46;;;;;;;3.83;1.20;;;10.90;99.90;;;;;;4937266;29;20311;-75
2023/02/19 15:32:17;;;;;;;1.67;1.10;;;10.90;99.90;;;;;;4937080;29;20211;-76
2023/02/19 15:34:54;;;;;;;1.97;1.07;;;11.00;99.90;;;;;;4937287;29;20235;-75
2023/02/19 15:37:23;;;;;;;3.37;1.03;;;10.80;99.90;;;;;;4937534;29;20212;-75
2023/02/19 15:39:52;;;;;;;2.00;1.20;;;10.90;99.90;;;;;;4937291;29;20259;-75
2023/02/19 15:42:23;;;;;;;2.40;1.30;;;10.80;99.90;;;;;;4936644;29;20299;-75
2023/02/19 15:44:56;;;;;;;2.30;1.17;;;10.80;99.90;;;;;;4937298;29;20232;-74
2023/02/19 15:47:32;;;;;;;1.60;1.10;;;10.80;99.90;;;;;;4937000;29;20224;-75
2023/02/19 15:50:02;;;;;;;1.93;1.20;;;10.80;99.90;;;;;;4937050;29;20603;-74
2023/02/19 15:52:37;;;;;;;3.17;1.10;;;10.60;99.90;;;;;;4936953;29;20300;-75
2023/02/19 15:55:15;;;;;;;2.87;1.10;;;10.70;99.90;;;;;;4937304;29;20232;-75
2023/02/19 15:57:45;;;;;;;1.40;0.80;;;10.60;99.90;;;;;;4936753;29;20216;-73
2023/02/19 16:00:17;;;;;;;1.50;1.10;;;10.60;99.90;;;;;;4937051;29;20216;-73
2023/02/19 16:02:45;;;;;;;3.73;1.40;;;10.50;99.90;;;;;;4936820;29;20209;-74
2023/02/19 16:05:14;;;;;;;6.03;1.30;;;10.60;99.90;;;;;;4936401;29;20236;-75
2023/02/19 16:07:43;;;;;;;1.87;1.20;;;10.70;99.90;;;;;;4936661;29;20663;-74
2023/02/19 16:10:20;;;;;;;3.77;1.27;;;10.70;99.90;;;;;;4936602;29;20643;-74
2023/02/19 16:12:58;;;;;;;2.17;1.30;;;10.60;99.90;;;;;;4936552;29;20215;-73
2023/02/19 16:15:26;;;;;;;3.90;1.53;;;10.50;99.90;;;;;;4936481;29;20232;-74
2023/02/19 16:17:53;;;;;;;1.47;1.00;;;10.40;99.90;;;;;;4936510;29;20224;-75
2023/02/19 16:20:23;;;;;;;1.80;1.30;;;10.40;99.90;;;;;;4936528;29;20212;-75
2023/02/19 16:22:56;;;;;;;2.30;1.30;;;10.50;99.90;;;;;;4936579;29;20295;-69
2023/02/19 16:25:30;;;;;;;4.13;1.20;;;10.50;99.90;;;;;;4936970;29;20233;-73
2023/02/19 16:27:57;;;;;;;1.20;0.97;;;10.50;99.90;;;;;;4936490;29;20208;-71
2023/02/19 16:30:29;;;;;;;1.73;1.00;;;10.60;99.90;;;;;;4936380;29;20283;-69
2023/02/19 16:33:31;;;;;;;3.50;1.30;;;10.60;99.90;;;;;;4936381;29;20608;-74
2023/02/19 16:36:15;;;;;;;3.20;1.20;;;10.40;99.90;;;;;;4936608;29;20209;-73
2023/02/19 16:38:59;;;;;;;4.70;1.80;;;10.40;99.90;;;;;;4936481;29;20204;-74
2023/02/19 16:41:26;;;;;;;2.40;1.27;;;10.40;99.90;;;;;;4936326;29;20208;-74
2023/02/19 16:43:53;;;;;;;2.63;1.10;;;10.40;99.90;;;;;;4936151;29;20229;-73
2023/02/19 16:46:19;;;;;;;4.40;1.20;;;10.40;99.90;;;;;;4936311;29;20258;-74
2023/02/19 16:48:46;;;;;;;3.17;1.40;;;10.40;99.90;;;;;;4936038;29;20691;-73
2023/02/19 16:51:21;;;;;;;3.60;1.60;;;10.50;99.90;;;;;;4935789;29;20212;-75
2023/02/19 16:53:49;;;;;;;4.00;1.60;;;10.40;99.90;;;;;;4935953;29;20233;-69
2023/02/19 16:56:20;;;;;;;2.80;1.50;;;10.30;99.90;;;;;;4936248;29;20213;-69
2023/02/19 16:58:46;;;;;;;2.70;1.43;;;10.30;99.90;;;;;;4935912;29;20255;-69
2023/02/19 17:01:14;;;;;;;2.27;1.40;;;10.50;99.90;;;;;;4935797;29;20215;-68
2023/02/19 17:03:41;;;;;;;3.83;1.40;;;10.40;99.90;;;;;;4936015;29;20267;-68
2023/02/19 17:06:08;;;;;;;4.33;1.80;;;10.40;99.90;;;;;;4935945;29;20208;-68
2023/02/19 17:08:36;;;;;;;7.37;1.40;;;10.30;99.90;;;;;;4935440;29;20664;-69
2023/02/19 17:11:09;;;;;;;1.97;1.17;;;10.30;99.90;;;;;;4935978;29;20213;-70
2023/02/19 17:13:36;;;;;;;2.53;1.60;;;10.30;99.90;;;;;;4935941;29;20214;-70
2023/02/19 17:16:03;;;;;;;3.17;1.50;;;10.20;99.90;;;;;;4935643;29;20209;-71
2023/02/19 17:18:30;;;;;;;5.53;1.53;;;10.10;99.90;;;;;;4935480;29;20223;-69
2023/02/19 17:21:01;;;;;;;3.50;2.67;;;10.10;99.90;;;;;;4936405;29;20212;-69
2023/02/19 17:23:28;;;;;;;12.00;4.83;;;10.10;99.90;;;;;;4935850;29;20205;-69
2023/02/19 17:25:55;;;;;;;5.40;2.53;;;10.20;99.90;;;;;;4935703;29;20537;-69
2023/02/19 17:28:23;;;;;;;4.33;2.17;;;10.30;99.90;;;;;;4935798;29;20219;-69
2023/02/19 17:30:50;;;;;;;4.07;2.97;;;10.20;99.90;;;;;;4935759;29;20236;-68
2023/02/19 17:33:17;;;;;;;4.73;2.60;;;10.40;99.90;;;;;;4935503;29;20312;-70
2023/02/19 17:35:44;;;;;;;5.03;3.13;;;10.40;99.90;;;;;;4935663;29;20233;-69
2023/02/19 17:38:12;;;;;;;6.33;2.80;;;10.30;99.90;;;;;;4935703;29;20239;-69
2023/02/19 17:40:39;;;;;;;10.67;4.73;;;10.40;99.90;;;;;;4935537;29;20205;-69
2023/02/19 17:43:07;;;;;;;2.50;1.77;;;10.40;99.90;;;;;;4936801;29;20775;-69
2023/02/19 17:45:35;;;;;;;3.67;2.13;;;10.30;99.90;;;;;;4939810;29;20235;-69
2023/02/19 17:48:02;;;;;;;9.27;4.07;;;10.20;99.90;;;;;;4939374;29;20239;-68
2023/02/19 17:50:32;;;;;;;8.33;2.60;;;10.20;99.90;;;;;;4939365;29;20595;-69
2023/02/19 17:52:59;;;;;;;5.90;2.70;;;10.20;99.90;;;;;;4939251;29;20228;-69
2023/02/19 17:55:26;;;;;;;7.40;2.37;;;10.20;99.90;;;;;;4939612;29;20235;-69
2023/02/19 17:57:53;;;;;;;8.30;2.47;;;10.30;99.90;;;;;;4939076;29;20219;-69
2023/02/19 18:00:22;;;;;;;8.93;3.90;;;10.30;99.90;;;;;;4939204;29;20212;-69
2023/02/19 18:02:50;;;;;;;3.53;2.10;;;10.10;99.90;;;;;;4939113;29;20209;-68
2023/02/19 18:05:17;;;;;;;13.97;5.20;;;10.10;99.90;;;;;;4938897;29;20239;-69
2023/02/19 18:07:45;;;;;;;18.07;6.73;;;10.10;99.90;;;;;;4938899;29;20684;-69
2023/02/19 18:10:12;;;;;;;9.80;3.70;;;10.10;99.90;;;;;;4938782;29;20683;-69
2023/02/19 18:12:40;;;;;;;5.00;2.53;;;10.00;99.90;;;;;;4939517;29;20206;-68
2023/02/19 18:15:08;;;;;;;13.80;4.03;;;9.90;99.90;;;;;;4938904;29;20246;-69
2023/02/19 18:17:35;;;;;;;12.87;4.63;;;9.90;99.90;;;;;;4938707;29;20209;-69
2023/02/19 18:20:04;;;;;;;5.43;2.93;;;9.80;99.90;;;;;;4938797;29;20664;-69
2023/02/19 18:22:31;;;;;;;4.43;2.60;;;9.70;99.90;;;;;;4938685;29;20208;-70
2023/02/19 18:24:59;;;;;;;5.67;2.67;;;9.70;99.90;;;;;;4939001;29;20233;-69
2023/02/19 18:27:26;;;;;;;5.50;3.93;;;9.60;99.90;;;;;;4938902;29;20209;-74
2023/02/19 18:29:54;;;;;;;8.67;3.50;;;9.60;99.90;;;;;;4937834;29;20239;-69
2023/02/19 18:32:23;;;;;;;6.93;2.83;;;9.50;99.90;;;;;;4937927;29;20538;-75
2023/02/19 18:34:50;;;;;;;5.13;2.50;;;9.50;99.90;;;;;;4937546;29;20228;-74
2023/02/19 18:37:19;;;;;;;11.97;5.30;;;9.50;99.90;;;;;;4937792;29;20248;-74
2023/02/19 18:39:46;;;;;;;3.83;2.33;;;9.40;99.90;;;;;;4938040;29;20219;-74
2023/02/19 18:42:13;;;;;;;3.40;2.00;;;9.40;99.90;;;;;;4937746;29;20247;-74
2023/02/19 18:44:40;;;;;;;2.93;1.90;;;9.30;99.90;;;;;;4937902;29;20233;-75
2023/02/19 18:47:10;;;;;;;4.77;2.10;;;9.30;99.90;;;;;;4937779;29;20215;-75
2023/02/19 18:49:37;;;;;;;5.77;2.40;;;9.20;99.90;;;;;;4937037;29;20266;-71
2023/02/19 18:52:04;;;;;;;7.63;2.83;;;9.20;99.90;;;;;;4937572;29;20293;-74
2023/02/19 18:54:32;;;;;;;6.73;3.03;;;9.20;99.90;;;;;;4935580;29;20233;-75
2023/02/19 18:57:01;;;;;;;6.30;2.83;;;9.20;99.90;;;;;;4931367;29;20687;-70
2023/02/19 18:59:27;;;;;;;3.77;2.30;;;9.10;99.90;;;;;;4926289;29;20573;-69
2023/02/19 19:01:54;;;;;;;5.57;3.30;;;9.00;99.90;;;;;;4933875;29;20213;-71
2023/02/19 19:04:21;;;;;;;3.20;1.90;;;8.90;99.90;;;;;;4929258;29;20249;-74
2023/02/19 19:06:48;;;;;;;6.57;3.67;;;8.90;99.90;;;;;;4929797;29;20213;-75
2023/02/19 19:09:15;;;;;;;5.87;2.40;;;8.90;99.90;;;;;;4928441;29;20576;-75
2023/02/19 19:11:45;;;;;;;3.60;1.80;;;8.90;99.90;;;;;;4937060;29;20590;-74
2023/02/19 19:14:12;;;;;;;7.00;1.83;;;8.90;99.90;;;;;;4933397;29;20811;-74
2023/02/19 19:16:39;;;;;;;3.03;1.90;;;8.90;99.90;;;;;;4935907;29;20227;-75
2023/02/19 19:19:06;;;;;;;4.53;2.57;;;8.90;99.90;;;;;;4930109;29;20264;-75
2023/02/19 19:21:33;;;;;;;6.27;2.30;;;8.90;99.90;;;;;;4935462;29;20212;-74
2023/02/19 19:23:59;;;;;;;7.80;2.23;;;9.00;99.90;;;;;;4932336;29;20243;-74
2023/02/19 19:26:26;;;;;;;3.33;2.00;;;8.90;99.90;;;;;;4936862;29;20299;-74
2023/02/19 19:28:54;;;;;;;5.40;2.17;;;8.80;99.90;;;;;;4931430;29;20304;-75
2023/02/19 19:31:23;;;;;;;4.87;2.23;;;8.90;99.90;;;;;;4929849;29;20247;-75
2023/02/19 19:33:50;;;;;;;5.00;2.47;;;8.70;99.90;;;;;;4936848;29;20228;-75
2023/02/19 19:36:20;;;;;;;7.77;2.57;;;8.80;99.90;;;;;;4935873;29;20219;-74
2023/02/19 19:38:48;;;;;;;3.63;2.07;;;8.80;99.90;;;;;;4927283;29;20209;-75
2023/02/19 19:41:16;;;;;;;4.60;2.20;;;8.70;99.90;;;;;;4930448;29;20206;-75
2023/02/19 19:43:43;;;;;;;5.40;2.23;;;8.80;99.90;;;;;;4932476;29;20228;-73
2023/02/19 19:46:17;;;;;;;2.70;1.97;;;8.70;99.90;;;;;;4933088;29;20212;-74
2023/02/19 19:48:44;;;;;;;7.03;2.80;;;8.70;99.90;;;;;;4924575;29;20217;-73
2023/02/19 19:51:11;;;;;;;8.43;3.20;;;8.70;99.90;;;;;;4930443;29;20252;-73
2023/02/19 19:53:38;;;;;;;5.17;2.70;;;8.60;99.90;;;;;;4932398;29;20628;-75
2023/02/19 19:56:06;;;;;;;6.27;2.70;;;8.50;99.90;;;;;;4931278;29;20213;-72
2023/02/19 19:58:33;;;;;;;4.00;2.70;;;8.40;99.90;;;;;;4933972;29;20212;-73
2023/02/19 20:01:00;;;;;;;4.77;2.67;;;8.30;99.90;;;;;;4930455;29;20761;-75
2023/02/19 20:03:29;;;;;;;5.83;2.43;;;8.30;99.90;;;;;;4934169;29;20204;-74
2023/02/19 20:05:56;;;;;;;5.30;2.60;;;8.20;99.90;;;;;;4927807;29;20209;-74
2023/02/19 20:08:22;;;;;;;6.23;3.17;;;8.10;99.90;;;;;;4935175;29;20214;-74
2023/02/19 20:10:49;;;;;;;4.70;2.93;;;8.00;99.90;;;;;;4933166;29;20325;-74
2023/02/19 20:13:17;;;;;;;3.77;2.70;;;7.90;99.90;;;;;;4928528;29;20215;-72
2023/02/19 20:15:44;;;;;;;6.37;3.00;;;7.80;99.90;;;;;;4928192;29;20228;-72
2023/02/19 20:18:11;;;;;;;7.70;3.50;;;7.70;99.90;;;;;;4935180;29;20219;-72
2023/02/19 20:20:39;;;;;;;7.37;3.40;;;7.70;99.90;;;;;;4930870;29;20205;-68
2023/02/19 20:23:05;;;;;;;6.37;3.37;;;7.70;99.90;;;;;;4934041;29;20291;-74
2023/02/19 20:25:32;;;;;;;5.63;3.43;;;7.60;99.90;;;;;;4927471;29;20229;-74
2023/02/19 20:27:59;;;;;;;6.73;3.57;;;7.50;99.90;;;;;;4933239;29;20604;-74
2023/02/19 20:30:26;;;;;;;8.47;4.73;;;7.40;99.90;;;;;;4934753;29;20233;-74
2023/02/19 20:32:54;;;;;;;5.97;3.57;;;7.40;99.90;;;;;;4935080;29;20216;-73
2023/02/19 20:35:20;;;;;;;10.40;4.93;;;7.40;99.90;;;;;;4935567;29;20612;-74
2023/02/19 20:37:49;;;;;;;9.93;3.90;;;7.40;99.90;;;;;;4934701;29;20217;-73
2023/02/19 20:40:17;;;;;;;10.10;3.57;;;7.40;99.90;;;;;;4935718;29;20213;-74
2023/02/19 20:42:44;;;;;;;7.27;3.80;;;7.40;99.90;;;;;;4935198;29;20208;-73
2023/02/19 20:45:13;;;;;;;9.53;3.90;;;7.40;99.90;;;;;;4935487;29;20229;-72
2023/02/19 20:47:39;;;;;;;8.93;3.77;;;7.30;99.90;;;;;;4934791;29;20205;-74
2023/02/19 20:50:07;;;;;;;6.10;4.07;;;7.30;99.90;;;;;;4935573;29;20236;-73
2023/02/19 20:52:34;;;;;;;8.13;3.73;;;7.10;99.90;;;;;;4934937;29;20215;-73
2023/02/19 20:55:02;;;;;;;9.33;4.57;;;7.00;99.90;;;;;;4935810;29;20232;-74
2023/02/19 20:57:29;;;;;;;8.47;4.17;;;6.90;99.90;;;;;;4934828;29;20301;-74
2023/02/19 20:59:56;;;;;;;9.67;3.93;;;6.90;99.90;;;;;;4924909;29;20209;-73
2023/02/19 21:02:27;;;;;;;8.97;4.07;;;6.90;99.90;;;;;;4931113;29;20217;-73
2023/02/19 21:04:55;;;;;;;7.67;3.87;;;6.90;99.90;;;;;;4934885;29;20228;-74
2023/02/19 21:07:22;;;;;;;8.67;3.67;;;6.90;99.90;;;;;;4935478;29;20220;-73
2023/02/19 21:09:49;;;;;;;7.67;4.20;;;6.80;99.90;;;;;;4934867;29;20213;-73
2023/02/19 21:12:17;;;;;;;7.23;4.00;;;6.80;99.90;;;;;;4935030;29;20635;-73
2023/02/19 21:14:44;;;;;;;7.17;3.67;;;6.70;99.90;;;;;;4935004;29;20309;-74
2023/02/19 21:17:11;;;;;;;7.47;3.33;;;6.70;99.90;;;;;;4934041;29;20209;-73
2023/02/19 21:19:38;;;;;;;7.73;4.20;;;6.70;99.90;;;;;;4934383;29;20208;-73
2023/02/19 21:22:05;;;;;;;8.40;3.80;;;6.70;99.90;;;;;;4934770;29;20209;-73
2023/02/19 21:24:32;;;;;;;6.20;3.30;;;6.80;99.90;;;;;;4934760;29;20225;-74
2023/02/19 21:26:59;;;;;;;7.83;3.47;;;6.80;99.90;;;;;;4935249;29;20217;-74
2023/02/19 21:29:27;;;;;;;7.80;3.50;;;6.80;99.90;;;;;;4934815;29;20213;-74
2023/02/19 21:31:56;;;;;;;6.70;3.13;;;6.80;99.90;;;;;;4934995;29;20239;-74
2023/02/19 21:34:25;;;;;;;5.83;3.50;;;6.80;99.90;;;;;;4934542;29;20232;-73
2023/02/19 21:36:52;;;;;;;5.10;3.10;;;6.70;99.90;;;;;;4935111;29;20213;-73
2023/02/19 21:39:21;;;;;;;5.93;3.30;;;6.60;99.90;;;;;;4934629;29;20215;-74
2023/02/19 21:41:48;;;;;;;9.43;3.63;;;6.40;99.90;;;;;;4934849;29;20564;-73
2023/02/19 21:44:14;;;;;;;11.43;3.97;;;6.30;99.90;;;;;;4934327;29;20239;-72
2023/02/19 21:46:43;;;;;;;6.60;3.80;;;6.20;99.90;;;;;;4934876;29;20656;-72
2023/02/19 21:49:11;;;;;;;5.17;3.63;;;6.30;99.90;;;;;;4934426;29;20230;-72
2023/02/19 21:51:40;;;;;;;10.40;3.37;;;6.30;99.90;;;;;;4934257;29;20235;-74
2023/02/19 21:54:12;;;;;;;6.37;3.60;;;6.30;99.90;;;;;;4932978;29;20229;-73
2023/02/19 21:56:39;;;;;;;8.47;3.67;;;6.30;99.90;;;;;;4922742;29;20677;-73
2023/02/19 21:59:05;;;;;;;8.40;4.17;;;6.30;99.90;;;;;;4934753;29;20209;-73
